This is the latest recevied weather packets stored in our database for station/object WX4SGA. If no packets are shown the sender has not sent any weather packets the latest 10 day(s).
| Time | Temp. | Humidity | Pressure | Rain* | Wind** | Luminosity | Snow |
|---|---|---|---|---|---|---|---|
| 1788539720 | 30.56° C | 76% | 1016.9 hPa | 0 mm | - | 872 W/m² | - |
| 1788539415 | 30° C | 79% | 1016.9 hPa | 0 mm | - | 251 W/m² | - |
| 1788539109 | 29.44° C | 79% | 1016.9 hPa | 0 mm | - | 216 W/m² | - |
| 1788538805 | 29.44° C | 81% | 1016.9 hPa | 0 mm | - | 166 W/m² | - |
| 1788538499 | 30° C | 79% | 1016.9 hPa | 0 mm | - | 140 W/m² | - |
| 1788538195 | 30° C | 80% | 1016.9 hPa | 0 mm | - | 853 W/m² | - |
| 1788537889 | 30° C | 81% | 1016.9 hPa | 0 mm | - | 850 W/m² | - |
| 1788537584 | 29.44° C | 83% | 1016.9 hPa | 0 mm | - | 862 W/m² | - |
| 1788537279 | 29.44° C | 84% | 1016.9 hPa | 0 mm | - | 406 W/m² | - |
| 1788536977 | 28.89° C | 85% | 1016.9 hPa | 0 mm | - | 940 W/m² | - |
| 1788536673 | 28.33° C | 85% | 1016.9 hPa | 0 mm | - | 199 W/m² | - |
| 1788536368 | 28.33° C | 86% | 1016.9 hPa | 0 mm | - | 163 W/m² | - |
| 1788536068 | 28.33° C | 86% | 1016.9 hPa | 0 mm | - | 199 W/m² | - |
| 1788535764 | 28.33° C | 85% | 1016.9 hPa | 0 mm | - | 191 W/m² | - |
| 1788535460 | 28.33° C | 86% | 1016.9 hPa | 0 mm | - | 147 W/m² | - |
| 1788535159 | 27.78° C | 87% | 1016.9 hPa | 0 mm | - | 156 W/m² | - |
| 1788534854 | 28.89° C | 83% | 1016.9 hPa | 0 mm | - | 130 W/m² | - |
| 1788534549 | 28.33° C | 85% | 1016.9 hPa | 0 mm | - | 144 W/m² | - |
| 1788534244 | 28.89° C | 83% | 1016.9 hPa | 0 mm | - | 164 W/m² | - |
| 1788533942 | 28.33° C | 87% | 1016.9 hPa | 0 mm | - | 666 W/m² | - |
| 1788533638 | 27.78° C | 88% | 1016.9 hPa | 0 mm | - | 186 W/m² | - |
| 1788533334 | 27.78° C | 88% | 1016.9 hPa | 0 mm | - | 243 W/m² | - |
| 1788533029 | 27.22° C | 91% | 1016.6 hPa | 0 mm | - | 150 W/m² | - |
| 1788532724 | 27.22° C | 89% | 1016.6 hPa | 0 mm | - | 165 W/m² | - |
| 1788532421 | 27.22° C | 91% | 1016.6 hPa | 0 mm | - | 184 W/m² | - |
* Rain latest hour (hover to see other rain measurements)
** Current wind speed in m/s (hover to see current wind gust speed)